createdAt,value
2023-05-11T00:00:41.079Z,98580.72
2023-05-11T00:03:08.346Z,98577.22
2023-05-11T00:05:35.610Z,98572.88
2023-05-11T00:08:02.495Z,98569.06
2023-05-11T00:10:29.765Z,98579.94
2023-05-11T00:12:57.047Z,98575.13
2023-05-11T00:15:24.152Z,98575.47
2023-05-11T00:17:51.340Z,98569.69
2023-05-11T00:20:18.612Z,98566.66
2023-05-11T00:22:45.837Z,98569.34
2023-05-11T00:25:12.858Z,98569.50
2023-05-11T00:27:41.023Z,98571.44
2023-05-11T00:30:10.101Z,98573.19
2023-05-11T00:32:36.990Z,98566.63
2023-05-11T00:35:04.055Z,98570.81
2023-05-11T00:37:34.033Z,98562.94
2023-05-11T00:40:06.412Z,98560.38
2023-05-11T00:42:34.330Z,98559.25
2023-05-11T00:45:03.655Z,98562.78
2023-05-11T00:47:32.947Z,98554.63
2023-05-11T00:49:59.833Z,98562.16
2023-05-11T00:52:27.307Z,98559.44
2023-05-11T00:54:54.259Z,98550.66
2023-05-11T00:57:21.545Z,98550.66
2023-05-11T00:59:49.870Z,98550.47
2023-05-11T01:02:17.832Z,98561.53
2023-05-11T01:04:45.629Z,98560.22
2023-05-11T01:07:41.176Z,98556.22
2023-05-11T01:10:55.636Z,98561.81
2023-05-11T01:13:37.732Z,98559.88
2023-05-11T01:16:24.262Z,98563.09
2023-05-11T01:19:15.681Z,98553.47
2023-05-11T01:21:42.543Z,98558.28
2023-05-11T01:24:50.038Z,98562.75
2023-05-11T01:27:40.012Z,98556.06
2023-05-11T01:30:32.323Z,98557.16
2023-05-11T01:33:07.721Z,98550.59
2023-05-11T01:35:42.910Z,98549.16
2023-05-11T01:38:14.490Z,98545.63
2023-05-11T01:40:44.637Z,98550.38
2023-05-11T01:43:22.274Z,98550.69
2023-05-11T01:45:54.246Z,98543.81
2023-05-11T01:48:29.074Z,98554.88
2023-05-11T01:51:03.016Z,98550.91
2023-05-11T01:53:34.744Z,98552.66
2023-05-11T01:56:04.199Z,98552.84
2023-05-11T01:58:35.519Z,98551.88
2023-05-11T02:01:04.148Z,98547.47
2023-05-11T02:03:37.406Z,98542.53
2023-05-11T02:06:09.467Z,98550.91
2023-05-11T02:08:41.653Z,98546.59
2023-05-11T02:11:12.110Z,98549.78
2023-05-11T02:13:42.548Z,98559.25
2023-05-11T02:16:12.166Z,98548.38
2023-05-11T02:18:41.924Z,98552.84
2023-05-11T02:21:11.233Z,98557.16
2023-05-11T02:23:44.164Z,98560.66
2023-05-11T02:26:14.557Z,98555.56
2023-05-11T02:28:41.342Z,98561.97
2023-05-11T02:31:19.290Z,98561.00
2023-05-11T02:33:52.509Z,98566.56
2023-05-11T02:36:25.427Z,98557.72
2023-05-11T02:39:02.533Z,98560.94
2023-05-11T02:41:31.972Z,98557.78
2023-05-11T02:44:04.069Z,98559.25
2023-05-11T02:46:36.307Z,98562.59
2023-05-11T02:49:07.993Z,98560.69
2023-05-11T02:51:43.163Z,98566.63
2023-05-11T02:54:14.992Z,98554.50
2023-05-11T02:56:42.296Z,98560.56
2023-05-11T02:59:10.573Z,98560.41
2023-05-11T03:01:39.457Z,98563.63
2023-05-11T03:04:07.138Z,98562.81
2023-05-11T03:06:34.211Z,98554.34
2023-05-11T03:09:02.114Z,98551.63
2023-05-11T03:11:30.184Z,98555.59
2023-05-11T03:13:58.751Z,98558.19
2023-05-11T03:16:27.069Z,98555.16
2023-05-11T03:18:55.821Z,98548.75
2023-05-11T03:21:26.075Z,98551.13
2023-05-11T03:23:54.096Z,98552.06
2023-05-11T03:26:23.595Z,98550.66
2023-05-11T03:28:53.795Z,98552.88
2023-05-11T03:31:20.755Z,98547.75
2023-05-11T03:33:47.739Z,98545.34
2023-05-11T03:36:15.888Z,98548.53
2023-05-11T03:38:46.349Z,98545.81
2023-05-11T03:41:17.622Z,98544.22
2023-05-11T03:43:50.340Z,98541.81
2023-05-11T03:46:21.744Z,98541.66
2023-05-11T03:48:49.914Z,98541.19
2023-05-11T03:51:17.373Z,98543.59
2023-05-11T03:53:47.198Z,98538.81
2023-05-11T03:56:14.245Z,98538.31
2023-05-11T03:58:41.688Z,98542.16
2023-05-11T04:01:11.655Z,98550.63
2023-05-11T04:03:53.294Z,98543.75
2023-05-11T04:06:20.847Z,98539.91
2023-05-11T04:08:48.178Z,98542.00
2023-05-11T04:11:14.984Z,98543.75
2023-05-11T04:13:41.812Z,98545.06
2023-05-11T04:16:08.949Z,98544.09
2023-05-11T04:18:35.856Z,98542.50
2023-05-11T04:21:02.648Z,98544.28
2023-05-11T04:23:29.423Z,98540.91
2023-05-11T04:25:56.739Z,98547.97
2023-05-11T04:28:27.512Z,98539.78
2023-05-11T04:30:56.508Z,98536.44
2023-05-11T04:33:24.069Z,98545.38
2023-05-11T04:35:52.901Z,98538.66
2023-05-11T04:38:21.604Z,98543.16
2023-05-11T04:40:50.413Z,98542.03
2023-05-11T04:43:18.692Z,98542.03
2023-05-11T04:45:50.095Z,98546.50
2023-05-11T04:48:20.399Z,98541.53
2023-05-11T04:50:47.786Z,98549.03
2023-05-11T04:53:14.664Z,98550.66
2023-05-11T04:55:41.434Z,98551.13
2023-05-11T04:58:08.402Z,98548.25
2023-05-11T05:00:36.552Z,98547.78
2023-05-11T05:03:03.881Z,98546.31
2023-05-11T05:05:30.734Z,98544.91
2023-05-11T05:07:57.558Z,98552.28
2023-05-11T05:10:24.509Z,98556.13
2023-05-11T05:12:51.363Z,98553.41
2023-05-11T05:15:18.182Z,98553.25
2023-05-11T05:17:45.065Z,98555.97
2023-05-11T05:20:12.086Z,98553.72
2023-05-11T05:22:38.841Z,98556.28
2023-05-11T05:25:08.229Z,98556.59
2023-05-11T05:27:35.347Z,98557.06
2023-05-11T05:30:06.649Z,98563.63
2023-05-11T05:32:33.577Z,98557.41
2023-05-11T05:35:00.448Z,98563.34
2023-05-11T05:37:27.254Z,98564.47
2023-05-11T05:39:57.171Z,98571.38
2023-05-11T05:42:26.700Z,98575.03
2023-05-11T05:44:53.533Z,98571.00
2023-05-11T05:47:20.693Z,98571.00
2023-05-11T05:49:48.583Z,98572.91
2023-05-11T05:52:15.906Z,98573.72
2023-05-11T05:54:43.086Z,98574.06
2023-05-11T05:57:09.935Z,98578.06
2023-05-11T05:59:36.651Z,98575.81
2023-05-11T06:02:03.667Z,98571.19
2023-05-11T06:04:30.889Z,98575.03
2023-05-11T06:06:58.413Z,98578.72
2023-05-11T06:09:25.272Z,98572.16
2023-05-11T06:11:54.027Z,98568.47
2023-05-11T06:14:24.456Z,98570.88
2023-05-11T06:16:51.509Z,98574.72
2023-05-11T06:19:18.275Z,98574.88
2023-05-11T06:21:45.198Z,98579.84
2023-05-11T06:24:12.088Z,98573.28
2023-05-11T06:26:39.691Z,98576.81
2023-05-11T06:29:07.558Z,98574.38
2023-05-11T06:31:34.538Z,98572.31
2023-05-11T06:34:01.560Z,98579.50
2023-05-11T06:36:28.531Z,98578.09
2023-05-11T06:38:55.988Z,98575.66
2023-05-11T06:41:22.811Z,98569.91
2023-05-11T06:43:49.630Z,98578.09
2023-05-11T06:46:19.784Z,98580.00
2023-05-11T06:48:46.545Z,98584.19
2023-05-11T06:51:13.380Z,98578.88
2023-05-11T06:53:42.938Z,98576.94
2023-05-11T06:56:09.719Z,98579.38
2023-05-11T06:58:36.610Z,98573.28
2023-05-11T07:01:05.690Z,98568.94
2023-05-11T07:03:32.566Z,98578.25
2023-05-11T07:05:59.418Z,98571.81
2023-05-11T07:08:34.826Z,98565.75
2023-05-11T07:11:01.603Z,98569.09
2023-05-11T07:13:28.486Z,98576.63
2023-05-11T07:15:57.632Z,98572.31
2023-05-11T07:18:24.852Z,98574.22
2023-05-11T07:20:52.233Z,98575.66
2023-05-11T07:23:22.997Z,98577.09
2023-05-11T07:25:49.761Z,98575.34
2023-05-11T07:28:17.325Z,98583.66
2023-05-11T07:30:44.242Z,98584.47
2023-05-11T07:33:11.116Z,98575.97
2023-05-11T07:35:38.045Z,98582.22
2023-05-11T07:38:07.775Z,98581.88
2023-05-11T07:40:35.412Z,98594.25
2023-05-11T07:43:02.142Z,98587.97
2023-05-11T07:45:28.906Z,98590.41
2023-05-11T07:47:56.155Z,98598.41
2023-05-11T07:50:24.302Z,98591.16
2023-05-11T07:52:52.097Z,98598.53
2023-05-11T07:55:20.382Z,98591.00
2023-05-11T07:57:47.516Z,98587.63
2023-05-11T08:00:15.396Z,98588.88
2023-05-11T08:02:42.831Z,98591.28
2023-05-11T08:05:10.023Z,98591.13
2023-05-11T08:07:37.874Z,98594.44
2023-05-11T08:10:07.574Z,98592.34
2023-05-11T08:12:36.864Z,98593.16
2023-05-11T08:15:05.468Z,98590.09
2023-05-11T08:17:33.426Z,98594.25
2023-05-11T08:20:00.472Z,98586.50
2023-05-11T08:22:27.322Z,98586.00
2023-05-11T08:24:54.161Z,98583.72
2023-05-11T08:27:21.418Z,98584.53
2023-05-11T08:29:48.321Z,98587.56
2023-05-11T08:32:15.424Z,98590.56
2023-05-11T08:34:42.415Z,98597.34
2023-05-11T08:37:09.315Z,98594.94
2023-05-11T08:39:46.525Z,98601.31
2023-05-11T08:42:17.091Z,98596.41
2023-05-11T08:44:44.720Z,98594.44
2023-05-11T08:49:42.824Z,98596.72
2023-05-11T08:52:10.722Z,98591.59
2023-05-11T08:54:37.537Z,98592.84
2023-05-11T08:57:07.062Z,98593.19
2023-05-11T08:59:34.235Z,98593.69
2023-05-11T09:02:03.131Z,98593.41
2023-05-11T09:04:32.461Z,98598.09
2023-05-11T09:07:00.018Z,98596.00
2023-05-11T09:09:27.081Z,98594.81
2023-05-11T09:11:54.336Z,98592.38
2023-05-11T09:14:26.960Z,98592.84
2023-05-11T09:16:54.244Z,98600.06
2023-05-11T09:19:21.751Z,98599.53
2023-05-11T09:21:48.556Z,98596.16
2023-05-11T09:24:15.603Z,98593.41
2023-05-11T09:26:42.521Z,98592.56
2023-05-11T09:29:12.266Z,98592.09
2023-05-11T09:31:48.902Z,98593.88
2023-05-11T09:34:22.536Z,98594.63
2023-05-11T09:36:53.374Z,98595.84
2023-05-11T09:39:39.999Z,98593.69
2023-05-11T09:42:14.399Z,98589.84
2023-05-11T09:44:44.596Z,98593.09
2023-05-11T09:47:16.587Z,98595.22
2023-05-11T09:49:45.785Z,98595.56
2023-05-11T09:52:15.623Z,98598.41
2023-05-11T09:54:44.991Z,98590.84
2023-05-11T09:57:29.192Z,98590.97
2023-05-11T09:59:59.763Z,98587.94
2023-05-11T10:02:31.639Z,98592.06
2023-05-11T10:05:01.294Z,98593.66
2023-05-11T10:07:32.845Z,98591.88
2023-05-11T10:10:06.786Z,98589.13
2023-05-11T10:12:38.231Z,98597.78
2023-05-11T10:15:10.490Z,98597.13
2023-05-11T10:17:37.915Z,98596.81
2023-05-11T10:20:06.898Z,98594.75
2023-05-11T10:22:34.125Z,98592.59
2023-05-11T10:25:03.140Z,98585.22
2023-05-11T10:27:32.910Z,98591.31
2023-05-11T10:30:00.597Z,98582.25
2023-05-11T10:32:29.869Z,98592.25
2023-05-11T10:34:57.215Z,98591.66
2023-05-11T10:37:24.390Z,98583.47
2023-05-11T10:39:52.384Z,98583.13
2023-05-11T10:43:00.517Z,98593.88
2023-05-11T10:45:40.590Z,98586.50
2023-05-11T10:48:29.000Z,98578.28
2023-05-11T10:51:47.555Z,98582.13
2023-05-11T10:54:38.729Z,98580.25
2023-05-11T10:57:47.698Z,98586.66
2023-05-11T11:01:02.475Z,98582.25
2023-05-11T11:03:30.473Z,98576.53
2023-05-11T11:05:59.951Z,98577.59
2023-05-11T11:08:28.575Z,98571.78
2023-05-11T11:10:56.255Z,98577.59
2023-05-11T11:13:24.439Z,98576.00
2023-05-11T11:15:54.718Z,98583.19
2023-05-11T11:18:26.629Z,98577.88
2023-05-11T11:20:56.322Z,98570.34
2023-05-11T11:23:50.245Z,98571.75
2023-05-11T11:26:50.634Z,98567.94
2023-05-11T11:29:17.649Z,98558.41
2023-05-11T11:31:44.773Z,98566.38
2023-05-11T11:34:29.909Z,98554.53
2023-05-11T11:37:00.844Z,98559.78
2023-05-11T11:39:44.856Z,98565.50
2023-05-11T11:42:35.476Z,98561.41
2023-05-11T11:45:32.727Z,98563.00
2023-05-11T11:48:15.571Z,98557.56
2023-05-11T11:50:45.474Z,98561.34
2023-05-11T11:53:38.417Z,98561.81
2023-05-11T11:56:15.975Z,98560.09
2023-05-11T11:58:46.034Z,98566.06
2023-05-11T12:01:22.724Z,98555.69
2023-05-11T12:04:04.981Z,98555.34
2023-05-11T12:06:39.675Z,98559.91
2023-05-11T12:09:08.118Z,98565.16
2023-05-11T12:11:35.304Z,98554.91
2023-05-11T12:14:02.909Z,98553.94
2023-05-11T12:16:30.404Z,98546.31
2023-05-11T12:19:02.327Z,98552.00
2023-05-11T12:21:32.184Z,98541.75
2023-05-11T12:24:07.889Z,98539.00
2023-05-11T12:26:35.655Z,98537.75
2023-05-11T12:29:14.616Z,98536.94
2023-05-11T12:31:48.773Z,98535.91
2023-05-11T12:34:22.990Z,98544.22
2023-05-11T12:36:53.348Z,98537.38
2023-05-11T12:39:22.417Z,98542.41
2023-05-11T12:41:52.484Z,98543.19
2023-05-11T12:44:23.030Z,98529.38
2023-05-11T12:46:50.744Z,98533.34
2023-05-11T12:49:25.889Z,98538.94
2023-05-11T12:52:02.529Z,98536.31
2023-05-11T12:54:38.133Z,98524.66
2023-05-11T12:57:08.707Z,98516.69
2023-05-11T12:59:39.214Z,98515.31
2023-05-11T13:02:16.368Z,98508.91
2023-05-11T13:04:45.592Z,98510.44
2023-05-11T13:07:23.268Z,98504.50
2023-05-11T13:10:01.288Z,98513.50
2023-05-11T13:12:34.108Z,98503.69
2023-05-11T13:15:12.451Z,98508.69
2023-05-11T13:17:42.627Z,98509.22
2023-05-11T13:20:20.700Z,98503.91
2023-05-11T13:22:49.558Z,98496.25
2023-05-11T13:25:20.338Z,98485.63
2023-05-11T13:27:48.498Z,98491.22
2023-05-11T13:30:15.507Z,98486.34
2023-05-11T13:32:42.343Z,98482.00
2023-05-11T13:35:09.727Z,98487.78
2023-05-11T13:37:36.636Z,98477.34
2023-05-11T13:40:04.918Z,98483.69
2023-05-11T13:42:32.628Z,98479.97
2023-05-11T13:44:59.456Z,98469.44
2023-05-11T13:47:26.642Z,98484.41
2023-05-11T13:49:56.344Z,98473.97
2023-05-11T13:52:23.231Z,98478.19
2023-05-11T13:54:49.992Z,98481.13
2023-05-11T13:57:17.025Z,98478.22
2023-05-11T13:59:44.039Z,98474.06
2023-05-11T14:02:11.599Z,98472.31
2023-05-11T14:04:39.951Z,98470.72
2023-05-11T14:07:07.515Z,98472.63
2023-05-11T14:09:34.390Z,98464.75
2023-05-11T14:12:01.419Z,98468.41
2023-05-11T14:14:28.342Z,98459.81
2023-05-11T14:16:55.488Z,98459.47
2023-05-11T14:19:22.302Z,98452.63
2023-05-11T14:21:49.749Z,98457.50
2023-05-11T14:24:16.544Z,98453.59
2023-05-11T14:26:43.330Z,98449.81
2023-05-11T14:29:10.303Z,98449.09
2023-05-11T14:31:40.224Z,98445.56
2023-05-11T14:34:07.059Z,98441.97
2023-05-11T14:36:39.023Z,98449.59
2023-05-11T14:39:05.958Z,98444.06
2023-05-11T14:41:34.673Z,98441.22
2023-05-11T14:44:01.800Z,98443.41
2023-05-11T14:46:28.866Z,98435.22
2023-05-11T14:48:55.802Z,98435.94
2023-05-11T14:51:22.694Z,98441.22
2023-05-11T14:53:57.097Z,98434.78
2023-05-11T14:56:23.944Z,98432.03
2023-05-11T14:58:50.764Z,98430.88
2023-05-11T15:01:18.106Z,98440.16
2023-05-11T15:03:45.073Z,98430.28
2023-05-11T15:06:21.414Z,98435.44
2023-05-11T15:08:52.517Z,98432.69
2023-05-11T15:11:19.453Z,98429.41
2023-05-11T15:13:47.510Z,98427.88
2023-05-11T15:16:14.746Z,98434.78
2023-05-11T15:18:43.072Z,98444.50
2023-05-11T15:21:10.109Z,98437.09
2023-05-11T15:23:37.095Z,98437.59
2023-05-11T15:26:04.015Z,98435.63
2023-05-11T15:28:30.895Z,98435.78
2023-05-11T15:30:57.738Z,98432.41
2023-05-11T15:33:24.763Z,98433.56
2023-05-11T15:35:51.934Z,98431.50
2023-05-11T15:38:18.835Z,98427.44
2023-05-11T15:40:46.452Z,98433.72
2023-05-11T15:43:14.542Z,98433.28
2023-05-11T15:45:41.356Z,98434.16
2023-05-11T15:48:09.789Z,98440.25
2023-05-11T15:50:37.178Z,98439.31
2023-05-11T15:53:04.188Z,98438.31
2023-05-11T15:55:31.098Z,98437.53
2023-05-11T15:57:58.075Z,98434.69
2023-05-11T16:00:24.914Z,98434.00
2023-05-11T16:02:53.563Z,98431.34
2023-05-11T16:05:20.598Z,98427.91
2023-05-11T16:07:50.367Z,98420.81
2023-05-11T16:10:17.318Z,98421.97
2023-05-11T16:12:45.363Z,98429.06
2023-05-11T16:15:12.156Z,98430.81
2023-05-11T16:17:39.223Z,98428.22
2023-05-11T16:20:06.992Z,98435.47
2023-05-11T16:22:35.333Z,98425.94
2023-05-11T16:25:02.218Z,98428.13
2023-05-11T16:27:29.040Z,98425.38
2023-05-11T16:29:55.813Z,98424.22
2023-05-11T16:32:22.800Z,98424.38
2023-05-11T16:34:49.597Z,98425.59
2023-05-11T16:37:16.490Z,98422.63
2023-05-11T16:39:43.325Z,98422.97
2023-05-11T16:42:10.506Z,98425.16
2023-05-11T16:44:37.320Z,98431.50
2023-05-11T16:47:04.913Z,98419.66
2023-05-11T16:49:31.759Z,98418.34
2023-05-11T16:51:58.514Z,98418.78
2023-05-11T16:54:26.475Z,98417.72
2023-05-11T16:56:54.251Z,98420.44
2023-05-11T16:59:21.332Z,98424.50
2023-05-11T17:01:49.308Z,98419.16
2023-05-11T17:04:16.448Z,98414.03
2023-05-11T17:06:43.575Z,98417.56
2023-05-11T17:09:10.483Z,98417.69
2023-05-11T17:11:37.372Z,98416.31
2023-05-11T17:14:04.191Z,98420.66
2023-05-11T17:16:31.124Z,98422.66
2023-05-11T17:18:59.371Z,98425.88
2023-05-11T17:21:26.581Z,98425.06
2023-05-11T17:23:56.236Z,98417.56
2023-05-11T17:26:27.248Z,98422.13
2023-05-11T17:29:12.687Z,98427.50
2023-05-11T17:31:40.728Z,98422.53
2023-05-11T17:34:08.765Z,98420.13
2023-05-11T17:36:36.004Z,98422.84
2023-05-11T17:39:05.174Z,98425.13
2023-05-11T17:41:32.960Z,98425.50
2023-05-11T17:43:59.981Z,98422.75
2023-05-11T17:46:28.146Z,98426.75
2023-05-11T17:48:58.029Z,98428.09
2023-05-11T17:51:25.303Z,98429.13
2023-05-11T17:53:53.235Z,98440.06
2023-05-11T17:56:20.044Z,98434.59
2023-05-11T17:58:47.630Z,98440.97
2023-05-11T18:01:14.620Z,98431.63
2023-05-11T18:03:42.274Z,98442.13
2023-05-11T18:06:09.930Z,98438.81
2023-05-11T18:08:36.904Z,98442.78
2023-05-11T18:11:04.582Z,98441.88
2023-05-11T18:13:31.712Z,98434.94
2023-05-11T18:15:59.636Z,98449.28
2023-05-11T18:18:28.042Z,98445.16
2023-05-11T18:20:55.220Z,98440.72
2023-05-11T18:23:21.957Z,98445.03
2023-05-11T18:25:49.051Z,98451.66
2023-05-11T18:28:15.861Z,98444.59
2023-05-11T18:30:42.735Z,98450.03
2023-05-11T18:33:09.665Z,98448.44
2023-05-11T18:35:39.088Z,98447.06
2023-05-11T18:38:07.418Z,98445.47
2023-05-11T18:40:35.377Z,98448.06
2023-05-11T18:43:02.235Z,98448.75
2023-05-11T18:45:30.390Z,98449.56
2023-05-11T18:47:57.668Z,98453.44
2023-05-11T18:50:25.907Z,98452.50
2023-05-11T18:52:53.136Z,98459.09
2023-05-11T18:55:20.082Z,98462.16
2023-05-11T18:57:48.680Z,98454.19
2023-05-11T19:00:16.158Z,98454.28
2023-05-11T19:02:43.589Z,98454.28
2023-05-11T19:05:10.789Z,98457.34
2023-05-11T19:07:38.144Z,98460.28
2023-05-11T19:10:06.480Z,98470.91
2023-05-11T19:12:33.435Z,98466.94
2023-05-11T19:15:00.286Z,98463.06
2023-05-11T19:17:27.650Z,98462.47
2023-05-11T19:19:56.311Z,98465.03
2023-05-11T19:22:24.261Z,98471.31
2023-05-11T19:24:51.080Z,98472.75
2023-05-11T19:27:18.441Z,98477.44
2023-05-11T19:29:45.675Z,98473.56
2023-05-11T19:32:12.495Z,98476.63
2023-05-11T19:34:42.039Z,98489.22
2023-05-11T19:37:09.234Z,98479.09
2023-05-11T19:39:40.845Z,98487.28
2023-05-11T19:42:08.193Z,98487.28
2023-05-11T19:44:43.470Z,98490.66
2023-05-11T19:47:10.691Z,98494.25
2023-05-11T19:49:37.925Z,98489.81
2023-05-11T19:52:05.675Z,98501.50
2023-05-11T19:54:32.964Z,98497.34
2023-05-11T19:57:00.309Z,98493.78
2023-05-11T19:59:34.632Z,98496.25
2023-05-11T20:02:03.492Z,98504.78
2023-05-11T20:04:33.080Z,98495.13
2023-05-11T20:07:00.235Z,98501.03
2023-05-11T20:09:27.451Z,98495.97
2023-05-11T20:11:54.291Z,98505.47
2023-05-11T20:14:21.419Z,98502.63
2023-05-11T20:16:48.138Z,98505.38
2023-05-11T20:19:15.115Z,98508.09
2023-05-11T20:21:42.385Z,98498.44
2023-05-11T20:24:09.475Z,98497.31
2023-05-11T20:26:39.400Z,98503.75
2023-05-11T20:29:07.755Z,98499.28
2023-05-11T20:31:34.652Z,98499.34
2023-05-11T20:36:31.500Z,98500.94
2023-05-11T20:38:59.129Z,98490.34
2023-05-11T20:41:28.234Z,98493.06
2023-05-11T20:43:55.340Z,98486.69
2023-05-11T20:46:22.213Z,98494.53
2023-05-11T20:48:51.774Z,98494.53
2023-05-11T20:51:23.212Z,98491.31
2023-05-11T20:53:50.928Z,98487.81
2023-05-11T20:56:17.843Z,98485.38
2023-05-11T20:58:47.377Z,98487.31
2023-05-11T21:01:14.330Z,98488.44
2023-05-11T21:03:41.920Z,98490.53
2023-05-11T21:06:08.855Z,98491.19
2023-05-11T21:08:36.140Z,98489.72
2023-05-11T21:11:03.164Z,98486.88
2023-05-11T21:13:30.262Z,98483.88
2023-05-11T21:15:57.248Z,98484.53
2023-05-11T21:18:33.962Z,98481.13
2023-05-11T21:21:04.592Z,98489.16
2023-05-11T21:23:31.442Z,98491.28
2023-05-11T21:25:59.171Z,98490.81
2023-05-11T21:28:27.742Z,98491.47
2023-05-11T21:30:55.091Z,98487.63
2023-05-11T21:33:21.901Z,98489.50
2023-05-11T21:35:51.817Z,98483.41
2023-05-11T21:38:25.816Z,98484.53
2023-05-11T21:40:56.269Z,98486.16
2023-05-11T21:43:23.305Z,98485.69
2023-05-11T21:45:53.926Z,98485.84
2023-05-11T21:48:21.658Z,98487.28
2023-05-11T21:50:54.235Z,98488.75
2023-05-11T21:53:22.321Z,98484.44
2023-05-11T21:55:50.601Z,98488.94
2023-05-11T21:58:17.633Z,98480.63
2023-05-11T22:00:44.524Z,98484.31
2023-05-11T22:03:14.276Z,98484.97
2023-05-11T22:05:41.722Z,98487.84
2023-05-11T22:08:14.746Z,98485.75
2023-05-11T22:10:43.433Z,98487.69
2023-05-11T22:13:18.587Z,98488.28
2023-05-11T22:15:45.323Z,98488.63
2023-05-11T22:18:12.053Z,98485.09
2023-05-11T22:20:38.866Z,98489.88
2023-05-11T22:23:05.986Z,98490.22
2023-05-11T22:25:32.793Z,98486.69
2023-05-11T22:28:00.936Z,98499.22
2023-05-11T22:30:27.782Z,98494.41
2023-05-11T22:32:54.647Z,98497.78
2023-05-11T22:35:22.890Z,98490.88
2023-05-11T22:37:49.764Z,98489.44
2023-05-11T22:40:16.912Z,98489.13
2023-05-11T22:42:43.964Z,98501.16
2023-05-11T22:45:11.293Z,98496.34
2023-05-11T22:47:39.171Z,98503.25
2023-05-11T22:50:11.540Z,98495.72
2023-05-11T22:52:38.653Z,98494.44
2023-05-11T22:55:06.780Z,98496.38
2023-05-11T22:57:33.700Z,98499.22
2023-05-11T23:00:00.495Z,98499.88
2023-05-11T23:02:29.700Z,98504.53
2023-05-11T23:04:56.861Z,98501.50
2023-05-11T23:07:24.939Z,98504.22
2023-05-11T23:09:52.875Z,98510.50
2023-05-11T23:12:19.928Z,98505.53
2023-05-11T23:14:47.039Z,98496.25
2023-05-11T23:17:14.224Z,98494.63
2023-05-11T23:19:41.745Z,98495.44
2023-05-11T23:22:11.949Z,98497.69
2023-05-11T23:24:38.684Z,98493.69
2023-05-11T23:27:05.777Z,98493.38
2023-05-11T23:29:32.586Z,98498.47
2023-05-11T23:31:59.367Z,98496.41
2023-05-11T23:34:26.171Z,98487.28
2023-05-11T23:36:53.382Z,98490.81
2023-05-11T23:39:20.457Z,98491.78
2023-05-11T23:41:47.176Z,98485.25
2023-05-11T23:44:13.967Z,98488.25
2023-05-11T23:46:41.078Z,98482.81
2023-05-11T23:49:07.855Z,98482.66
2023-05-11T23:51:34.773Z,98482.50
2023-05-11T23:54:02.015Z,98473.72
2023-05-11T23:56:28.753Z,98478.19
2023-05-11T23:58:55.947Z,98479.28
